sensor_id;sensor_type;location;lat;lon;timestamp;pressure;altitude;pressure_sealevel;temperature;humidity
58668;BME280;59852;43.086;25.634;2023-02-01T00:01:19;98906.44;;;1.32;80.41
58668;BME280;59852;43.086;25.634;2023-02-01T00:03:44;98898.81;;;1.29;80.39
58668;BME280;59852;43.086;25.634;2023-02-01T00:06:10;98903.13;;;1.28;80.73
58668;BME280;59852;43.086;25.634;2023-02-01T00:08:35;98900.22;;;1.39;80.27
58668;BME280;59852;43.086;25.634;2023-02-01T00:11:01;98893.84;;;1.23;81.23
58668;BME280;59852;43.086;25.634;2023-02-01T00:13:28;98905.09;;;1.20;81.38
58668;BME280;59852;43.086;25.634;2023-02-01T00:15:54;98908.00;;;1.36;80.19
58668;BME280;59852;43.086;25.634;2023-02-01T00:18:19;98901.38;;;1.29;80.34
58668;BME280;59852;43.086;25.634;2023-02-01T00:20:45;98909.91;;;1.31;80.13
58668;BME280;59852;43.086;25.634;2023-02-01T00:23:11;98910.56;;;1.09;80.22
58668;BME280;59852;43.086;25.634;2023-02-01T00:25:36;98904.84;;;1.28;80.30
58668;BME280;59852;43.086;25.634;2023-02-01T00:28:02;98911.16;;;1.18;80.59
58668;BME280;59852;43.086;25.634;2023-02-01T00:30:27;98907.66;;;1.20;80.03
58668;BME280;59852;43.086;25.634;2023-02-01T00:32:52;98902.47;;;1.22;80.01
58668;BME280;59852;43.086;25.634;2023-02-01T00:35:18;98905.59;;;1.31;80.14
58668;BME280;59852;43.086;25.634;2023-02-01T00:37:43;98906.50;;;1.30;79.96
58668;BME280;59852;43.086;25.634;2023-02-01T00:40:08;98906.72;;;1.23;79.85
58668;BME280;59852;43.086;25.634;2023-02-01T00:42:34;98904.25;;;1.20;80.38
58668;BME280;59852;43.086;25.634;2023-02-01T00:44:59;98895.75;;;1.16;80.83
58668;BME280;59852;43.086;25.634;2023-02-01T00:47:24;98901.50;;;1.24;80.92
58668;BME280;59852;43.086;25.634;2023-02-01T00:49:50;98898.56;;;1.36;80.95
58668;BME280;59852;43.086;25.634;2023-02-01T00:52:15;98901.56;;;1.23;80.79
58668;BME280;59852;43.086;25.634;2023-02-01T00:54:40;98899.09;;;1.20;80.85
58668;BME280;59852;43.086;25.634;2023-02-01T00:57:06;98901.06;;;1.11;81.25
58668;BME280;59852;43.086;25.634;2023-02-01T00:59:31;98898.22;;;1.21;80.38
58668;BME280;59852;43.086;25.634;2023-02-01T01:01:56;98897.97;;;1.28;79.90
58668;BME280;59852;43.086;25.634;2023-02-01T01:04:22;98892.00;;;1.26;80.44
58668;BME280;59852;43.086;25.634;2023-02-01T01:06:47;98888.59;;;1.26;81.32
58668;BME280;59852;43.086;25.634;2023-02-01T01:09:12;98888.75;;;1.21;80.76
58668;BME280;59852;43.086;25.634;2023-02-01T01:11:38;98895.41;;;1.27;80.77
58668;BME280;59852;43.086;25.634;2023-02-01T01:14:04;98892.56;;;1.36;79.93
58668;BME280;59852;43.086;25.634;2023-02-01T01:16:30;98890.19;;;1.30;80.44
58668;BME280;59852;43.086;25.634;2023-02-01T01:18:56;98891.22;;;1.24;80.07
58668;BME280;59852;43.086;25.634;2023-02-01T01:21:22;98886.91;;;1.25;79.72
58668;BME280;59852;43.086;25.634;2023-02-01T01:23:47;98895.03;;;1.12;79.95
58668;BME280;59852;43.086;25.634;2023-02-01T01:26:20;98887.28;;;1.12;79.45
58668;BME280;59852;43.086;25.634;2023-02-01T01:28:46;98889.59;;;1.22;79.96
58668;BME280;59852;43.086;25.634;2023-02-01T01:31:12;98887.78;;;1.24;79.79
58668;BME280;59852;43.086;25.634;2023-02-01T01:33:38;98886.97;;;1.23;80.72
58668;BME280;59852;43.086;25.634;2023-02-01T01:36:04;98884.44;;;1.22;81.08
58668;BME280;59852;43.086;25.634;2023-02-01T01:38:29;98885.06;;;0.72;81.93
58668;BME280;59852;43.086;25.634;2023-02-01T01:40:55;98890.75;;;1.11;81.43
58668;BME280;59852;43.086;25.634;2023-02-01T01:43:20;98886.97;;;1.23;81.44
58668;BME280;59852;43.086;25.634;2023-02-01T01:45:49;98886.78;;;1.01;81.30
58668;BME280;59852;43.086;25.634;2023-02-01T01:48:21;98888.31;;;1.07;81.90
58668;BME280;59852;43.086;25.634;2023-02-01T01:51:00;98885.59;;;1.11;81.39
58668;BME280;59852;43.086;25.634;2023-02-01T01:53:28;98893.00;;;1.22;81.52
58668;BME280;59852;43.086;25.634;2023-02-01T01:55:56;98891.53;;;1.13;82.25
58668;BME280;59852;43.086;25.634;2023-02-01T01:58:23;98901.75;;;1.17;81.78
58668;BME280;59852;43.086;25.634;2023-02-01T02:00:50;98896.31;;;0.98;82.79
58668;BME280;59852;43.086;25.634;2023-02-01T02:05:41;98903.47;;;1.16;81.36
58668;BME280;59852;43.086;25.634;2023-02-01T02:08:07;98901.38;;;1.29;80.84
58668;BME280;59852;43.086;25.634;2023-02-01T02:10:32;98902.25;;;1.28;81.17
58668;BME280;59852;43.086;25.634;2023-02-01T02:13:16;98907.78;;;1.15;81.72
58668;BME280;59852;43.086;25.634;2023-02-01T02:15:43;98906.63;;;1.26;81.38
58668;BME280;59852;43.086;25.634;2023-02-01T02:18:31;98903.97;;;1.29;80.20
58668;BME280;59852;43.086;25.634;2023-02-01T02:21:16;98909.31;;;1.23;79.71
58668;BME280;59852;43.086;25.634;2023-02-01T02:24:05;98903.63;;;1.11;79.65
58668;BME280;59852;43.086;25.634;2023-02-01T02:34:38;98913.38;;;1.02;79.66
58668;BME280;59852;43.086;25.634;2023-02-01T02:42:24;98916.41;;;1.14;78.47
58668;BME280;59852;43.086;25.634;2023-02-01T02:45:20;98920.16;;;1.04;78.88
58668;BME280;59852;43.086;25.634;2023-02-01T02:48:17;98916.75;;;1.04;79.08
58668;BME280;59852;43.086;25.634;2023-02-01T02:50:46;98918.63;;;0.99;80.00
58668;BME280;59852;43.086;25.634;2023-02-01T02:53:47;98920.69;;;0.86;79.17
58668;BME280;59852;43.086;25.634;2023-02-01T02:56:32;98913.69;;;0.91;78.63
58668;BME280;59852;43.086;25.634;2023-02-01T02:59:17;98922.69;;;0.76;77.79
58668;BME280;59852;43.086;25.634;2023-02-01T03:02:03;98923.47;;;1.08;78.43
58668;BME280;59852;43.086;25.634;2023-02-01T03:04:51;98916.53;;;1.11;77.82
58668;BME280;59852;43.086;25.634;2023-02-01T03:10:05;98924.94;;;1.17;78.97
58668;BME280;59852;43.086;25.634;2023-02-01T03:12:33;98925.66;;;1.22;78.83
58668;BME280;59852;43.086;25.634;2023-02-01T03:15:19;98928.44;;;1.14;78.81
58668;BME280;59852;43.086;25.634;2023-02-01T03:17:47;98926.50;;;1.22;78.35
58668;BME280;59852;43.086;25.634;2023-02-01T03:20:15;98923.28;;;0.86;76.86
58668;BME280;59852;43.086;25.634;2023-02-01T03:22:44;98927.78;;;1.07;77.10
58668;BME280;59852;43.086;25.634;2023-02-01T03:25:15;98925.31;;;1.04;76.46
58668;BME280;59852;43.086;25.634;2023-02-01T03:27:46;98937.22;;;1.08;77.23
58668;BME280;59852;43.086;25.634;2023-02-01T03:30:19;98938.47;;;1.23;77.42
58668;BME280;59852;43.086;25.634;2023-02-01T03:32:46;98936.22;;;1.12;75.68
58668;BME280;59852;43.086;25.634;2023-02-01T03:37:53;98930.19;;;1.13;76.30
58668;BME280;59852;43.086;25.634;2023-02-01T03:40:21;98931.09;;;1.12;78.03
58668;BME280;59852;43.086;25.634;2023-02-01T03:42:48;98941.38;;;1.12;77.41
58668;BME280;59852;43.086;25.634;2023-02-01T03:45:20;98939.75;;;1.10;77.66
58668;BME280;59852;43.086;25.634;2023-02-01T03:47:48;98944.84;;;1.11;76.90
58668;BME280;59852;43.086;25.634;2023-02-01T03:50:21;98948.84;;;1.22;76.71
58668;BME280;59852;43.086;25.634;2023-02-01T03:52:54;98948.13;;;1.17;76.85
58668;BME280;59852;43.086;25.634;2023-02-01T03:55:23;98942.94;;;1.18;78.05
58668;BME280;59852;43.086;25.634;2023-02-01T03:57:56;98937.78;;;1.18;77.67
58668;BME280;59852;43.086;25.634;2023-02-01T04:00:23;98940.44;;;1.15;78.07
58668;BME280;59852;43.086;25.634;2023-02-01T04:02:49;98935.84;;;0.97;78.57
58668;BME280;59852;43.086;25.634;2023-02-01T04:05:14;98943.97;;;1.12;78.36
58668;BME280;59852;43.086;25.634;2023-02-01T04:07:40;98940.38;;;1.17;77.99
58668;BME280;59852;43.086;25.634;2023-02-01T04:10:06;98937.03;;;1.14;77.44
58668;BME280;59852;43.086;25.634;2023-02-01T04:12:31;98938.75;;;1.14;77.60
58668;BME280;59852;43.086;25.634;2023-02-01T04:14:57;98935.72;;;1.29;75.10
58668;BME280;59852;43.086;25.634;2023-02-01T04:17:23;98937.75;;;1.20;75.57
58668;BME280;59852;43.086;25.634;2023-02-01T04:19:48;98941.28;;;1.15;76.19
58668;BME280;59852;43.086;25.634;2023-02-01T04:22:13;98947.09;;;1.22;76.69
58668;BME280;59852;43.086;25.634;2023-02-01T04:24:39;98947.22;;;1.18;75.00
58668;BME280;59852;43.086;25.634;2023-02-01T04:27:04;98951.59;;;1.15;76.22
58668;BME280;59852;43.086;25.634;2023-02-01T04:29:29;98948.41;;;1.07;74.97
58668;BME280;59852;43.086;25.634;2023-02-01T04:31:55;98948.41;;;1.07;77.00
58668;BME280;59852;43.086;25.634;2023-02-01T04:34:20;98944.09;;;1.08;77.73
58668;BME280;59852;43.086;25.634;2023-02-01T04:36:47;98941.72;;;1.02;77.21
58668;BME280;59852;43.086;25.634;2023-02-01T04:39:13;98941.66;;;1.03;77.11
58668;BME280;59852;43.086;25.634;2023-02-01T04:41:38;98945.97;;;1.03;77.58
58668;BME280;59852;43.086;25.634;2023-02-01T04:44:03;98944.19;;;1.05;77.97
58668;BME280;59852;43.086;25.634;2023-02-01T04:46:29;98944.44;;;0.96;75.86
58668;BME280;59852;43.086;25.634;2023-02-01T04:48:54;98938.25;;;1.03;76.30
58668;BME280;59852;43.086;25.634;2023-02-01T04:51:19;98941.56;;;1.06;75.73
58668;BME280;59852;43.086;25.634;2023-02-01T04:53:44;98948.66;;;0.98;75.58
58668;BME280;59852;43.086;25.634;2023-02-01T04:56:10;98947.03;;;0.96;75.50
58668;BME280;59852;43.086;25.634;2023-02-01T04:58:35;98952.09;;;0.99;75.53
58668;BME280;59852;43.086;25.634;2023-02-01T05:01:04;98951.53;;;0.89;76.61
58668;BME280;59852;43.086;25.634;2023-02-01T05:03:30;98949.06;;;0.84;76.33
58668;BME280;59852;43.086;25.634;2023-02-01T05:05:55;98947.56;;;0.77;75.66
58668;BME280;59852;43.086;25.634;2023-02-01T05:08:21;98955.06;;;0.85;74.54
58668;BME280;59852;43.086;25.634;2023-02-01T05:10:47;98961.84;;;0.88;75.10
58668;BME280;59852;43.086;25.634;2023-02-01T05:13:13;98953.91;;;0.66;75.54
58668;BME280;59852;43.086;25.634;2023-02-01T05:15:56;98952.09;;;0.69;75.48
58668;BME280;59852;43.086;25.634;2023-02-01T05:18:22;98958.00;;;0.73;75.70
58668;BME280;59852;43.086;25.634;2023-02-01T05:20:47;98964.88;;;0.72;74.40
58668;BME280;59852;43.086;25.634;2023-02-01T05:23:12;98959.97;;;0.63;75.43
58668;BME280;59852;43.086;25.634;2023-02-01T05:25:38;98962.31;;;0.72;74.59
58668;BME280;59852;43.086;25.634;2023-02-01T05:28:03;98959.34;;;0.55;75.09
58668;BME280;59852;43.086;25.634;2023-02-01T05:30:28;98966.31;;;0.51;75.78
58668;BME280;59852;43.086;25.634;2023-02-01T05:32:54;98975.63;;;0.55;75.52
58668;BME280;59852;43.086;25.634;2023-02-01T05:35:19;98978.19;;;0.55;74.84
58668;BME280;59852;43.086;25.634;2023-02-01T05:37:45;98973.31;;;0.46;76.15
58668;BME280;59852;43.086;25.634;2023-02-01T05:40:10;98978.38;;;0.49;75.88
58668;BME280;59852;43.086;25.634;2023-02-01T05:42:36;98975.03;;;0.46;76.01
58668;BME280;59852;43.086;25.634;2023-02-01T05:45:01;98975.50;;;0.60;75.56
58668;BME280;59852;43.086;25.634;2023-02-01T05:47:26;98974.38;;;0.69;75.46
58668;BME280;59852;43.086;25.634;2023-02-01T05:49:52;98978.09;;;0.58;75.74
58668;BME280;59852;43.086;25.634;2023-02-01T05:52:17;98982.19;;;0.35;76.85
58668;BME280;59852;43.086;25.634;2023-02-01T05:54:44;98988.78;;;0.45;75.67
58668;BME280;59852;43.086;25.634;2023-02-01T05:57:10;98986.69;;;0.26;75.60
58668;BME280;59852;43.086;25.634;2023-02-01T05:59:36;98988.81;;;0.43;75.83
58668;BME280;59852;43.086;25.634;2023-02-01T06:02:05;98987.75;;;0.52;75.02
58668;BME280;59852;43.086;25.634;2023-02-01T06:04:31;98984.97;;;0.60;74.87
58668;BME280;59852;43.086;25.634;2023-02-01T06:06:56;98989.13;;;0.64;75.45
58668;BME280;59852;43.086;25.634;2023-02-01T06:09:21;98989.78;;;0.72;75.30
58668;BME280;59852;43.086;25.634;2023-02-01T06:11:47;98988.91;;;1.02;74.98
58668;BME280;59852;43.086;25.634;2023-02-01T06:14:12;98988.03;;;1.03;74.92
58668;BME280;59852;43.086;25.634;2023-02-01T06:16:37;98992.22;;;1.06;74.90
58668;BME280;59852;43.086;25.634;2023-02-01T06:19:03;98988.44;;;1.18;74.33
58668;BME280;59852;43.086;25.634;2023-02-01T06:21:28;98998.06;;;1.12;74.48
58668;BME280;59852;43.086;25.634;2023-02-01T06:23:53;98994.22;;;1.26;73.61
58668;BME280;59852;43.086;25.634;2023-02-01T06:26:20;98993.66;;;1.16;73.69
58668;BME280;59852;43.086;25.634;2023-02-01T06:28:45;99001.84;;;1.01;73.11
58668;BME280;59852;43.086;25.634;2023-02-01T06:31:10;98999.31;;;1.27;72.40
58668;BME280;59852;43.086;25.634;2023-02-01T06:33:36;98991.06;;;1.16;73.07
58668;BME280;59852;43.086;25.634;2023-02-01T06:36:03;98998.53;;;0.96;72.81
58668;BME280;59852;43.086;25.634;2023-02-01T06:38:29;99001.09;;;0.96;72.94
58668;BME280;59852;43.086;25.634;2023-02-01T06:40:55;98993.00;;;0.80;73.40
58668;BME280;59852;43.086;25.634;2023-02-01T06:43:23;98990.75;;;0.99;73.76
58668;BME280;59852;43.086;25.634;2023-02-01T06:45:49;98990.06;;;0.92;73.66
58668;BME280;59852;43.086;25.634;2023-02-01T06:48:14;98995.22;;;1.50;72.14
58668;BME280;59852;43.086;25.634;2023-02-01T06:50:40;98996.63;;;1.02;72.96
58668;BME280;59852;43.086;25.634;2023-02-01T06:53:05;98992.00;;;1.97;70.15
58668;BME280;59852;43.086;25.634;2023-02-01T06:55:30;98987.78;;;1.95;69.72
58668;BME280;59852;43.086;25.634;2023-02-01T06:57:56;98994.47;;;2.00;70.63
58668;BME280;59852;43.086;25.634;2023-02-01T07:00:22;98992.13;;;1.66;72.71
58668;BME280;59852;43.086;25.634;2023-02-01T07:02:47;99004.28;;;2.16;70.31
58668;BME280;59852;43.086;25.634;2023-02-01T07:05:12;98989.22;;;4.74;61.91
58668;BME280;59852;43.086;25.634;2023-02-01T07:07:38;98989.84;;;5.92;57.33
58668;BME280;59852;43.086;25.634;2023-02-01T07:10:03;98994.34;;;6.06;57.28
58668;BME280;59852;43.086;25.634;2023-02-01T07:12:29;98990.81;;;3.95;62.73
58668;BME280;59852;43.086;25.634;2023-02-01T07:14:54;98997.63;;;4.38;63.44
58668;BME280;59852;43.086;25.634;2023-02-01T07:17:19;99001.63;;;3.61;65.91
58668;BME280;59852;43.086;25.634;2023-02-01T07:19:45;99014.81;;;2.84;68.60
58668;BME280;59852;43.086;25.634;2023-02-01T07:22:10;99016.72;;;2.54;69.89
58668;BME280;59852;43.086;25.634;2023-02-01T07:24:35;99004.00;;;1.98;70.94
58668;BME280;59852;43.086;25.634;2023-02-01T07:27:00;99018.16;;;1.85;71.04
58668;BME280;59852;43.086;25.634;2023-02-01T07:29:26;99022.44;;;2.13;71.28
58668;BME280;59852;43.086;25.634;2023-02-01T07:31:51;99018.44;;;1.78;71.15
58668;BME280;59852;43.086;25.634;2023-02-01T07:34:16;99013.19;;;2.07;70.90
58668;BME280;59852;43.086;25.634;2023-02-01T07:36:42;99010.03;;;1.71;71.29
58668;BME280;59852;43.086;25.634;2023-02-01T07:39:07;99015.84;;;1.78;71.97
58668;BME280;59852;43.086;25.634;2023-02-01T07:41:33;99010.13;;;1.94;70.93
58668;BME280;59852;43.086;25.634;2023-02-01T07:43:58;99021.16;;;1.99;71.76
58668;BME280;59852;43.086;25.634;2023-02-01T07:46:23;99011.03;;;2.20;71.11
58668;BME280;59852;43.086;25.634;2023-02-01T07:48:49;99015.00;;;2.04;71.52
58668;BME280;59852;43.086;25.634;2023-02-01T07:51:15;99018.78;;;1.93;71.14
58668;BME280;59852;43.086;25.634;2023-02-01T07:53:41;99012.88;;;2.16;71.09
58668;BME280;59852;43.086;25.634;2023-02-01T07:56:13;99014.50;;;1.92;71.95
58668;BME280;59852;43.086;25.634;2023-02-01T07:58:39;99014.88;;;2.08;71.07
58668;BME280;59852;43.086;25.634;2023-02-01T08:01:04;99018.56;;;2.26;71.30
58668;BME280;59852;43.086;25.634;2023-02-01T08:03:45;99009.72;;;2.08;71.53
58668;BME280;59852;43.086;25.634;2023-02-01T08:06:11;99003.97;;;2.25;71.30
58668;BME280;59852;43.086;25.634;2023-02-01T08:08:36;99008.22;;;2.27;70.47
58668;BME280;59852;43.086;25.634;2023-02-01T08:11:04;98996.97;;;5.32;62.78
58668;BME280;59852;43.086;25.634;2023-02-01T08:13:30;98970.00;;;14.88;38.26
58668;BME280;59852;43.086;25.634;2023-02-01T08:15:58;98968.78;;;15.73;33.89
58668;BME280;59852;43.086;25.634;2023-02-01T08:18:24;98982.44;;;14.24;35.63
58668;BME280;59852;43.086;25.634;2023-02-01T08:20:49;98987.78;;;5.80;53.70
58668;BME280;59852;43.086;25.634;2023-02-01T08:23:16;98999.38;;;4.58;61.03
58668;BME280;59852;43.086;25.634;2023-02-01T08:25:42;98992.50;;;3.74;63.89
58668;BME280;59852;43.086;25.634;2023-02-01T08:28:07;99004.22;;;3.39;65.01
58668;BME280;59852;43.086;25.634;2023-02-01T08:30:33;99009.41;;;4.05;63.66
58668;BME280;59852;43.086;25.634;2023-02-01T08:32:58;99005.00;;;4.07;64.48
58668;BME280;59852;43.086;25.634;2023-02-01T08:35:23;99015.44;;;5.05;60.11
58668;BME280;59852;43.086;25.634;2023-02-01T08:37:51;99003.41;;;4.45;61.74
58668;BME280;59852;43.086;25.634;2023-02-01T08:40:17;99020.19;;;3.94;63.84
58668;BME280;59852;43.086;25.634;2023-02-01T08:42:42;99014.03;;;3.74;65.58
58668;BME280;59852;43.086;25.634;2023-02-01T08:45:17;99012.19;;;3.33;66.99
58668;BME280;59852;43.086;25.634;2023-02-01T08:47:44;99020.94;;;3.52;66.50
58668;BME280;59852;43.086;25.634;2023-02-01T08:50:09;99023.84;;;3.44;66.93
58668;BME280;59852;43.086;25.634;2023-02-01T08:52:35;99022.69;;;3.52;66.93
58668;BME280;59852;43.086;25.634;2023-02-01T08:55:00;99016.38;;;3.81;66.04
58668;BME280;59852;43.086;25.634;2023-02-01T08:57:25;99012.34;;;3.73;65.88
58668;BME280;59852;43.086;25.634;2023-02-01T08:59:51;99001.16;;;3.73;65.74
58668;BME280;59852;43.086;25.634;2023-02-01T09:02:16;99010.69;;;4.15;65.39
58668;BME280;59852;43.086;25.634;2023-02-01T09:04:42;99013.19;;;3.96;66.41
58668;BME280;59852;43.086;25.634;2023-02-01T09:07:08;99013.63;;;3.85;66.27
58668;BME280;59852;43.086;25.634;2023-02-01T09:09:33;99004.41;;;3.78;65.83
58668;BME280;59852;43.086;25.634;2023-02-01T09:11:59;99007.34;;;3.91;65.90
58668;BME280;59852;43.086;25.634;2023-02-01T09:14:24;99009.56;;;4.00;67.04
58668;BME280;59852;43.086;25.634;2023-02-01T09:16:49;98999.94;;;3.82;66.50
58668;BME280;59852;43.086;25.634;2023-02-01T09:19:15;98997.53;;;3.99;66.52
58668;BME280;59852;43.086;25.634;2023-02-01T09:21:40;99002.59;;;3.80;66.49
58668;BME280;59852;43.086;25.634;2023-02-01T09:24:06;98999.66;;;3.67;67.65
58668;BME280;59852;43.086;25.634;2023-02-01T09:26:32;99001.81;;;3.78;66.19
58668;BME280;59852;43.086;25.634;2023-02-01T09:28:58;99000.56;;;3.66;66.93
58668;BME280;59852;43.086;25.634;2023-02-01T09:31:23;99001.16;;;3.73;66.85
58668;BME280;59852;43.086;25.634;2023-02-01T09:33:48;99005.94;;;3.84;65.44
58668;BME280;59852;43.086;25.634;2023-02-01T09:36:14;99000.75;;;3.84;65.40
58668;BME280;59852;43.086;25.634;2023-02-01T09:38:39;98999.94;;;3.60;65.75
58668;BME280;59852;43.086;25.634;2023-02-01T09:41:24;98999.13;;;3.59;65.41
58668;BME280;59852;43.086;25.634;2023-02-01T09:46:29;98978.47;;;3.80;65.56
58668;BME280;59852;43.086;25.634;2023-02-01T09:48:57;98974.38;;;3.96;64.91
58668;BME280;59852;43.086;25.634;2023-02-01T09:51:32;98967.53;;;4.15;63.77
58668;BME280;59852;43.086;25.634;2023-02-01T09:54:01;98972.03;;;4.10;64.77
58668;BME280;59852;43.086;25.634;2023-02-01T09:56:33;98966.94;;;4.09;64.14
58668;BME280;59852;43.086;25.634;2023-02-01T10:01:31;98961.38;;;4.18;63.79
58668;BME280;59852;43.086;25.634;2023-02-01T10:04:05;98954.66;;;4.14;64.13
58668;BME280;59852;43.086;25.634;2023-02-01T10:19:47;98916.88;;;5.07;61.86
58668;BME280;59852;43.086;25.634;2023-02-01T10:23:03;98916.09;;;5.05;61.91
58668;BME280;59852;43.086;25.634;2023-02-01T10:25:23;98905.06;;;5.18;60.56
58668;BME280;59852;43.086;25.634;2023-02-01T10:27:51;98904.72;;;5.26;61.30
58668;BME280;59852;43.086;25.634;2023-02-01T10:30:18;98907.97;;;5.12;62.16
58668;BME280;59852;43.086;25.634;2023-02-01T10:32:44;98906.22;;;5.13;61.07
58668;BME280;59852;43.086;25.634;2023-02-01T10:35:14;98900.53;;;5.24;60.64
58668;BME280;59852;43.086;25.634;2023-02-01T10:37:40;98890.00;;;5.27;60.19
58668;BME280;59852;43.086;25.634;2023-02-01T10:40:15;98892.03;;;5.20;60.88
58668;BME280;59852;43.086;25.634;2023-02-01T10:42:40;98881.03;;;5.34;61.48
58668;BME280;59852;43.086;25.634;2023-02-01T10:45:06;98877.69;;;5.32;61.12
58668;BME280;59852;43.086;25.634;2023-02-01T10:47:31;98874.78;;;5.38;60.03
58668;BME280;59852;43.086;25.634;2023-02-01T10:52:38;98865.34;;;5.54;58.98
58668;BME280;59852;43.086;25.634;2023-02-01T10:57:56;98861.53;;;5.61;59.30
58668;BME280;59852;43.086;25.634;2023-02-01T11:00:21;98857.47;;;5.56;59.15
58668;BME280;59852;43.086;25.634;2023-02-01T11:02:47;98858.00;;;5.45;59.30
58668;BME280;59852;43.086;25.634;2023-02-01T11:05:15;98854.66;;;5.43;59.95
58668;BME280;59852;43.086;25.634;2023-02-01T11:07:46;98849.72;;;5.19;59.65
58668;BME280;59852;43.086;25.634;2023-02-01T11:12:56;98836.94;;;5.34;59.95
58668;BME280;59852;43.086;25.634;2023-02-01T11:15:23;98830.53;;;5.41;59.35
58668;BME280;59852;43.086;25.634;2023-02-01T11:17:49;98823.66;;;5.40;58.57
58668;BME280;59852;43.086;25.634;2023-02-01T11:20:38;98833.56;;;5.49;60.17
58668;BME280;59852;43.086;25.634;2023-02-01T11:23:04;98820.56;;;5.51;58.96
58668;BME280;59852;43.086;25.634;2023-02-01T11:25:30;98822.28;;;5.50;59.70
58668;BME280;59852;43.086;25.634;2023-02-01T11:27:56;98817.72;;;5.55;59.24
58668;BME280;59852;43.086;25.634;2023-02-01T11:30:28;98818.72;;;5.53;59.31
58668;BME280;59852;43.086;25.634;2023-02-01T11:32:56;98806.88;;;5.64;59.23
58668;BME280;59852;43.086;25.634;2023-02-01T11:35:22;98812.53;;;5.55;58.60
58668;BME280;59852;43.086;25.634;2023-02-01T11:37:58;98796.03;;;5.73;58.41
58668;BME280;59852;43.086;25.634;2023-02-01T11:40:28;98798.09;;;6.01;57.58
58668;BME280;59852;43.086;25.634;2023-02-01T11:42:55;98793.63;;;6.21;58.32
58668;BME280;59852;43.086;25.634;2023-02-01T11:45:26;98796.22;;;6.37;57.85
58668;BME280;59852;43.086;25.634;2023-02-01T11:47:52;98791.22;;;6.33;57.79
58668;BME280;59852;43.086;25.634;2023-02-01T11:50:28;98778.22;;;6.33;56.50
58668;BME280;59852;43.086;25.634;2023-02-01T11:58:17;98773.97;;;5.82;56.54
58668;BME280;59852;43.086;25.634;2023-02-01T12:11:39;98762.63;;;6.33;54.73
58668;BME280;59852;43.086;25.634;2023-02-01T12:14:12;98761.88;;;6.31;54.22
58668;BME280;59852;43.086;25.634;2023-02-01T12:20:02;98752.94;;;6.53;54.96
58668;BME280;59852;43.086;25.634;2023-02-01T12:39:21;98741.66;;;6.05;55.72
58668;BME280;59852;43.086;25.634;2023-02-01T12:41:50;98753.78;;;5.87;57.44
58668;BME280;59852;43.086;25.634;2023-02-01T12:44:20;98754.06;;;5.83;56.74
58668;BME280;59852;43.086;25.634;2023-02-01T12:46:57;98759.53;;;5.76;57.36
58668;BME280;59852;43.086;25.634;2023-02-01T12:53:07;98764.28;;;5.68;58.16
58668;BME280;59852;43.086;25.634;2023-02-01T12:55:22;98766.66;;;5.73;57.68
58668;BME280;59852;43.086;25.634;2023-02-01T13:01:18;98770.25;;;5.70;58.73
58668;BME280;59852;43.086;25.634;2023-02-01T13:03:34;98768.25;;;5.75;58.60
58668;BME280;59852;43.086;25.634;2023-02-01T13:06:09;98765.44;;;5.80;58.05
58668;BME280;59852;43.086;25.634;2023-02-01T13:08:41;98770.63;;;5.80;58.78
58668;BME280;59852;43.086;25.634;2023-02-01T13:11:16;98758.91;;;5.89;57.10
58668;BME280;59852;43.086;25.634;2023-02-01T13:16:19;98763.81;;;5.78;59.30
58668;BME280;59852;43.086;25.634;2023-02-01T13:18:52;98763.34;;;5.87;58.25
58668;BME280;59852;43.086;25.634;2023-02-01T13:21:24;98764.56;;;5.97;56.70
58668;BME280;59852;43.086;25.634;2023-02-01T13:23:50;98764.44;;;6.00;56.53
58668;BME280;59852;43.086;25.634;2023-02-01T13:26:17;98772.06;;;6.03;55.67
58668;BME280;59852;43.086;25.634;2023-02-01T13:28:44;98767.16;;;5.97;56.77
58668;BME280;59852;43.086;25.634;2023-02-01T13:33:46;98775.66;;;6.00;56.21
58668;BME280;59852;43.086;25.634;2023-02-01T13:43:49;98779.69;;;6.06;57.11
58668;BME280;59852;43.086;25.634;2023-02-01T13:46:16;98758.91;;;6.06;57.10
58668;BME280;59852;43.086;25.634;2023-02-01T13:48:55;98766.22;;;6.15;56.38
58668;BME280;59852;43.086;25.634;2023-02-01T13:51:33;98756.44;;;6.20;56.21
58668;BME280;59852;43.086;25.634;2023-02-01T13:53:59;98763.88;;;6.11;56.43
58668;BME280;59852;43.086;25.634;2023-02-01T13:56:24;98762.19;;;6.10;56.92
58668;BME280;59852;43.086;25.634;2023-02-01T13:58:51;98763.63;;;6.15;57.33
58668;BME280;59852;43.086;25.634;2023-02-01T14:14:46;98772.81;;;6.05;57.13
58668;BME280;59852;43.086;25.634;2023-02-01T14:19:22;98759.06;;;6.03;57.08
58668;BME280;59852;43.086;25.634;2023-02-01T14:21:55;98771.53;;;5.96;57.74
58668;BME280;59852;43.086;25.634;2023-02-01T14:24:29;98768.34;;;5.91;57.55
58668;BME280;59852;43.086;25.634;2023-02-01T14:26:56;98766.69;;;5.89;57.15
58668;BME280;59852;43.086;25.634;2023-02-01T14:29:26;98775.13;;;5.94;54.84
58668;BME280;59852;43.086;25.634;2023-02-01T14:34:49;98787.09;;;5.79;54.58
58668;BME280;59852;43.086;25.634;2023-02-01T14:44:56;98791.78;;;5.72;55.00
58668;BME280;59852;43.086;25.634;2023-02-01T14:47:40;98790.47;;;5.64;54.55
58668;BME280;59852;43.086;25.634;2023-02-01T14:53:34;98795.44;;;5.51;55.91
58668;BME280;59852;43.086;25.634;2023-02-01T14:58:01;98793.53;;;5.37;57.57
58668;BME280;59852;43.086;25.634;2023-02-01T15:00:28;98800.75;;;5.31;57.56
58668;BME280;59852;43.086;25.634;2023-02-01T15:02:55;98802.13;;;5.21;57.65
58668;BME280;59852;43.086;25.634;2023-02-01T15:07:46;98808.09;;;5.23;57.41
58668;BME280;59852;43.086;25.634;2023-02-01T15:10:12;98815.16;;;5.19;57.42
58668;BME280;59852;43.086;25.634;2023-02-01T15:12:39;98812.97;;;5.11;57.57
58668;BME280;59852;43.086;25.634;2023-02-01T15:15:21;98818.16;;;5.11;57.69
58668;BME280;59852;43.086;25.634;2023-02-01T15:17:52;98818.59;;;5.02;58.34
58668;BME280;59852;43.086;25.634;2023-02-01T15:20:19;98825.31;;;4.87;58.23
58668;BME280;59852;43.086;25.634;2023-02-01T15:23:19;98823.22;;;4.96;57.43